sensor_id;sensor_type;location;lat;lon;timestamp;temperature;humidity
67890;DHT22;54685;52.082;5.426;2022-10-19T00:01:40;8.10;99.90
67890;DHT22;54685;52.082;5.426;2022-10-19T00:04:06;7.90;99.90
67890;DHT22;54685;52.082;5.426;2022-10-19T00:06:35;7.80;99.90
67890;DHT22;54685;52.082;5.426;2022-10-19T00:09:08;7.80;99.90
67890;DHT22;54685;52.082;5.426;2022-10-19T00:11:36;7.80;99.90
67890;DHT22;54685;52.082;5.426;2022-10-19T00:14:03;7.70;99.90
67890;DHT22;54685;52.082;5.426;2022-10-19T00:16:34;7.70;99.90
67890;DHT22;54685;52.082;5.426;2022-10-19T00:19:04;7.80;99.90
67890;DHT22;54685;52.082;5.426;2022-10-19T00:21:31;7.70;99.90
67890;DHT22;54685;52.082;5.426;2022-10-19T00:23:58;7.70;99.90
67890;DHT22;54685;52.082;5.426;2022-10-19T00:26:25;7.60;99.90
67890;DHT22;54685;52.082;5.426;2022-10-19T00:28:54;7.60;99.90
67890;DHT22;54685;52.082;5.426;2022-10-19T00:31:21;7.50;99.90
67890;DHT22;54685;52.082;5.426;2022-10-19T00:33:48;7.50;99.90
67890;DHT22;54685;52.082;5.426;2022-10-19T00:36:17;7.50;99.90
67890;DHT22;54685;52.082;5.426;2022-10-19T00:38:44;7.50;99.90
67890;DHT22;54685;52.082;5.426;2022-10-19T00:41:11;7.50;99.90
67890;DHT22;54685;52.082;5.426;2022-10-19T00:43:55;7.50;99.90
67890;DHT22;54685;52.082;5.426;2022-10-19T00:46:22;7.40;99.90
67890;DHT22;54685;52.082;5.426;2022-10-19T00:48:51;7.40;99.90
67890;DHT22;54685;52.082;5.426;2022-10-19T00:51:18;7.40;99.90
67890;DHT22;54685;52.082;5.426;2022-10-19T00:53:45;7.40;99.90
67890;DHT22;54685;52.082;5.426;2022-10-19T00:56:13;7.40;99.90
67890;DHT22;54685;52.082;5.426;2022-10-19T00:58:42;7.30;99.90
67890;DHT22;54685;52.082;5.426;2022-10-19T01:01:13;7.30;99.90
67890;DHT22;54685;52.082;5.426;2022-10-19T01:03:41;7.30;99.90
67890;DHT22;54685;52.082;5.426;2022-10-19T01:06:09;7.30;99.90
67890;DHT22;54685;52.082;5.426;2022-10-19T01:08:37;7.40;99.90
67890;DHT22;54685;52.082;5.426;2022-10-19T01:14:01;7.50;99.90
67890;DHT22;54685;52.082;5.426;2022-10-19T01:16:57;7.40;99.90
67890;DHT22;54685;52.082;5.426;2022-10-19T01:25:45;7.20;99.90
67890;DHT22;54685;52.082;5.426;2022-10-19T01:30:58;7.00;99.90
67890;DHT22;54685;52.082;5.426;2022-10-19T01:33:41;6.90;99.90
67890;DHT22;54685;52.082;5.426;2022-10-19T01:36:18;6.80;99.90
67890;DHT22;54685;52.082;5.426;2022-10-19T01:41:49;6.70;99.90
67890;DHT22;54685;52.082;5.426;2022-10-19T01:44:28;6.60;99.90
67890;DHT22;54685;52.082;5.426;2022-10-19T01:47:02;6.60;99.90
67890;DHT22;54685;52.082;5.426;2022-10-19T01:49:44;6.50;99.90
67890;DHT22;54685;52.082;5.426;2022-10-19T01:52:14;6.50;99.90
67890;DHT22;54685;52.082;5.426;2022-10-19T01:54:47;6.50;99.90
67890;DHT22;54685;52.082;5.426;2022-10-19T01:57:37;6.50;99.90
67890;DHT22;54685;52.082;5.426;2022-10-19T02:00:07;6.50;99.90
67890;DHT22;54685;52.082;5.426;2022-10-19T02:02:42;6.50;99.90
67890;DHT22;54685;52.082;5.426;2022-10-19T02:05:10;6.50;99.90
67890;DHT22;54685;52.082;5.426;2022-10-19T02:07:39;6.50;99.90
67890;DHT22;54685;52.082;5.426;2022-10-19T02:10:07;6.60;99.90
67890;DHT22;54685;52.082;5.426;2022-10-19T02:12:34;6.60;99.90
67890;DHT22;54685;52.082;5.426;2022-10-19T02:15:08;6.60;99.90
67890;DHT22;54685;52.082;5.426;2022-10-19T02:17:41;6.50;99.90
67890;DHT22;54685;52.082;5.426;2022-10-19T02:20:09;6.50;99.90
67890;DHT22;54685;52.082;5.426;2022-10-19T02:22:36;6.50;99.90
67890;DHT22;54685;52.082;5.426;2022-10-19T02:25:03;6.50;99.90
67890;DHT22;54685;52.082;5.426;2022-10-19T02:27:31;6.50;99.90
67890;DHT22;54685;52.082;5.426;2022-10-19T02:29:58;6.40;99.90
67890;DHT22;54685;52.082;5.426;2022-10-19T02:32:25;6.40;99.90
67890;DHT22;54685;52.082;5.426;2022-10-19T02:34:52;6.40;99.90
67890;DHT22;54685;52.082;5.426;2022-10-19T02:37:19;6.30;99.90
67890;DHT22;54685;52.082;5.426;2022-10-19T02:39:51;6.30;99.90
67890;DHT22;54685;52.082;5.426;2022-10-19T02:42:41;6.30;99.90
67890;DHT22;54685;52.082;5.426;2022-10-19T02:45:18;6.30;99.90
67890;DHT22;54685;52.082;5.426;2022-10-19T02:47:51;6.20;99.90
67890;DHT22;54685;52.082;5.426;2022-10-19T02:50:20;6.10;99.90
67890;DHT22;54685;52.082;5.426;2022-10-19T02:52:47;6.00;99.90
67890;DHT22;54685;52.082;5.426;2022-10-19T02:55:14;5.90;99.90
67890;DHT22;54685;52.082;5.426;2022-10-19T02:57:41;5.80;99.90
67890;DHT22;54685;52.082;5.426;2022-10-19T03:00:08;5.70;99.90
67890;DHT22;54685;52.082;5.426;2022-10-19T03:02:35;5.70;99.90
67890;DHT22;54685;52.082;5.426;2022-10-19T03:05:03;5.60;99.90
67890;DHT22;54685;52.082;5.426;2022-10-19T03:07:32;5.50;99.90
67890;DHT22;54685;52.082;5.426;2022-10-19T03:09:59;5.50;99.90
67890;DHT22;54685;52.082;5.426;2022-10-19T03:12:25;5.50;99.90
67890;DHT22;54685;52.082;5.426;2022-10-19T03:14:52;5.40;99.90
67890;DHT22;54685;52.082;5.426;2022-10-19T03:17:19;5.50;99.90
67890;DHT22;54685;52.082;5.426;2022-10-19T03:19:46;5.50;99.90
67890;DHT22;54685;52.082;5.426;2022-10-19T03:22:13;5.60;99.90
67890;DHT22;54685;52.082;5.426;2022-10-19T03:24:40;5.60;99.90
67890;DHT22;54685;52.082;5.426;2022-10-19T03:27:07;5.70;99.90
67890;DHT22;54685;52.082;5.426;2022-10-19T03:29:33;5.80;99.90
67890;DHT22;54685;52.082;5.426;2022-10-19T03:32:00;5.80;99.90
67890;DHT22;54685;52.082;5.426;2022-10-19T03:34:27;5.80;99.90
67890;DHT22;54685;52.082;5.426;2022-10-19T03:36:54;5.80;99.90
67890;DHT22;54685;52.082;5.426;2022-10-19T03:39:22;5.80;99.90
67890;DHT22;54685;52.082;5.426;2022-10-19T03:41:48;5.80;99.90
67890;DHT22;54685;52.082;5.426;2022-10-19T03:44:15;5.80;99.90
67890;DHT22;54685;52.082;5.426;2022-10-19T03:46:42;5.80;99.90
67890;DHT22;54685;52.082;5.426;2022-10-19T03:49:09;5.90;99.90
67890;DHT22;54685;52.082;5.426;2022-10-19T03:51:36;5.80;99.90
67890;DHT22;54685;52.082;5.426;2022-10-19T03:54:06;5.90;99.90
67890;DHT22;54685;52.082;5.426;2022-10-19T03:56:34;5.90;99.90
67890;DHT22;54685;52.082;5.426;2022-10-19T03:59:02;5.90;99.90
67890;DHT22;54685;52.082;5.426;2022-10-19T04:01:35;5.90;99.90
67890;DHT22;54685;52.082;5.426;2022-10-19T04:04:05;5.80;99.90
67890;DHT22;54685;52.082;5.426;2022-10-19T04:06:35;5.80;99.90
67890;DHT22;54685;52.082;5.426;2022-10-19T04:09:04;5.80;99.90
67890;DHT22;54685;52.082;5.426;2022-10-19T04:11:33;5.80;99.90
67890;DHT22;54685;52.082;5.426;2022-10-19T04:14:00;5.70;99.90
67890;DHT22;54685;52.082;5.426;2022-10-19T04:16:29;5.60;99.90
67890;DHT22;54685;52.082;5.426;2022-10-19T04:18:56;5.60;99.90
67890;DHT22;54685;52.082;5.426;2022-10-19T04:21:24;5.50;99.90
67890;DHT22;54685;52.082;5.426;2022-10-19T04:23:55;5.40;99.90
67890;DHT22;54685;52.082;5.426;2022-10-19T04:26:22;5.30;99.90
67890;DHT22;54685;52.082;5.426;2022-10-19T04:28:49;5.30;99.90
67890;DHT22;54685;52.082;5.426;2022-10-19T04:31:16;5.30;99.90
67890;DHT22;54685;52.082;5.426;2022-10-19T04:33:43;5.30;99.90
67890;DHT22;54685;52.082;5.426;2022-10-19T04:36:11;5.40;99.90
67890;DHT22;54685;52.082;5.426;2022-10-19T04:38:38;5.40;99.90
67890;DHT22;54685;52.082;5.426;2022-10-19T04:41:07;5.40;99.90
67890;DHT22;54685;52.082;5.426;2022-10-19T04:43:34;5.40;99.90
67890;DHT22;54685;52.082;5.426;2022-10-19T04:46:16;5.40;99.90
67890;DHT22;54685;52.082;5.426;2022-10-19T04:48:44;5.30;99.90
67890;DHT22;54685;52.082;5.426;2022-10-19T04:51:11;5.40;99.90
67890;DHT22;54685;52.082;5.426;2022-10-19T04:53:39;5.40;99.90
67890;DHT22;54685;52.082;5.426;2022-10-19T04:56:08;5.40;99.90
67890;DHT22;54685;52.082;5.426;2022-10-19T04:58:35;5.40;99.90
67890;DHT22;54685;52.082;5.426;2022-10-19T05:01:09;5.50;99.90
67890;DHT22;54685;52.082;5.426;2022-10-19T05:03:37;5.50;99.90
67890;DHT22;54685;52.082;5.426;2022-10-19T05:06:07;5.40;99.90
67890;DHT22;54685;52.082;5.426;2022-10-19T05:08:35;5.40;99.90
67890;DHT22;54685;52.082;5.426;2022-10-19T05:11:07;5.40;99.90
67890;DHT22;54685;52.082;5.426;2022-10-19T05:13:34;5.30;99.90
67890;DHT22;54685;52.082;5.426;2022-10-19T05:16:03;5.30;99.90
67890;DHT22;54685;52.082;5.426;2022-10-19T05:18:31;5.40;99.90
67890;DHT22;54685;52.082;5.426;2022-10-19T05:21:08;5.30;99.90
67890;DHT22;54685;52.082;5.426;2022-10-19T05:23:35;5.30;99.90
67890;DHT22;54685;52.082;5.426;2022-10-19T05:26:10;5.20;99.90
67890;DHT22;54685;52.082;5.426;2022-10-19T05:28:37;5.10;99.90
67890;DHT22;54685;52.082;5.426;2022-10-19T05:31:15;5.10;99.90
67890;DHT22;54685;52.082;5.426;2022-10-19T05:33:43;5.00;99.90
67890;DHT22;54685;52.082;5.426;2022-10-19T05:39:15;5.00;99.90
67890;DHT22;54685;52.082;5.426;2022-10-19T05:41:43;5.00;99.90
67890;DHT22;54685;52.082;5.426;2022-10-19T05:44:16;5.00;99.90
67890;DHT22;54685;52.082;5.426;2022-10-19T05:46:43;5.10;99.90
67890;DHT22;54685;52.082;5.426;2022-10-19T05:49:11;5.10;99.90
67890;DHT22;54685;52.082;5.426;2022-10-19T05:51:39;5.20;99.90
67890;DHT22;54685;52.082;5.426;2022-10-19T05:54:05;5.20;99.90
67890;DHT22;54685;52.082;5.426;2022-10-19T05:56:33;5.20;99.90
67890;DHT22;54685;52.082;5.426;2022-10-19T05:59:02;5.30;99.90
67890;DHT22;54685;52.082;5.426;2022-10-19T06:01:29;5.20;99.90
67890;DHT22;54685;52.082;5.426;2022-10-19T06:03:58;5.20;99.90
67890;DHT22;54685;52.082;5.426;2022-10-19T06:06:25;5.20;99.90
67890;DHT22;54685;52.082;5.426;2022-10-19T06:08:54;5.20;99.90
67890;DHT22;54685;52.082;5.426;2022-10-19T06:11:30;5.10;99.90
67890;DHT22;54685;52.082;5.426;2022-10-19T06:13:58;5.10;99.90
67890;DHT22;54685;52.082;5.426;2022-10-19T06:16:25;5.10;99.90
67890;DHT22;54685;52.082;5.426;2022-10-19T06:18:53;5.00;99.90
67890;DHT22;54685;52.082;5.426;2022-10-19T06:21:22;4.90;99.90
67890;DHT22;54685;52.082;5.426;2022-10-19T06:23:53;4.80;99.90
67890;DHT22;54685;52.082;5.426;2022-10-19T06:26:21;4.80;99.90
67890;DHT22;54685;52.082;5.426;2022-10-19T06:28:48;4.80;99.90
67890;DHT22;54685;52.082;5.426;2022-10-19T06:31:16;4.80;99.90
67890;DHT22;54685;52.082;5.426;2022-10-19T06:33:44;4.80;99.90
67890;DHT22;54685;52.082;5.426;2022-10-19T06:36:20;4.70;99.90
67890;DHT22;54685;52.082;5.426;2022-10-19T06:38:47;4.80;99.90
67890;DHT22;54685;52.082;5.426;2022-10-19T06:41:15;4.90;99.90
67890;DHT22;54685;52.082;5.426;2022-10-19T06:43:42;4.80;99.90
67890;DHT22;54685;52.082;5.426;2022-10-19T06:46:11;4.80;99.90
67890;DHT22;54685;52.082;5.426;2022-10-19T06:48:38;4.80;99.90
67890;DHT22;54685;52.082;5.426;2022-10-19T06:51:06;4.70;99.90
67890;DHT22;54685;52.082;5.426;2022-10-19T06:53:34;4.70;99.90
67890;DHT22;54685;52.082;5.426;2022-10-19T06:56:03;4.80;99.90
67890;DHT22;54685;52.082;5.426;2022-10-19T06:58:34;4.80;99.90
67890;DHT22;54685;52.082;5.426;2022-10-19T07:01:01;4.80;99.90
67890;DHT22;54685;52.082;5.426;2022-10-19T07:03:29;4.80;99.90
67890;DHT22;54685;52.082;5.426;2022-10-19T07:05:59;4.80;99.90
67890;DHT22;54685;52.082;5.426;2022-10-19T07:08:27;4.80;99.90
67890;DHT22;54685;52.082;5.426;2022-10-19T07:10:58;4.90;99.90
67890;DHT22;54685;52.082;5.426;2022-10-19T07:13:26;4.90;99.90
67890;DHT22;54685;52.082;5.426;2022-10-19T07:16:03;5.00;99.90
67890;DHT22;54685;52.082;5.426;2022-10-19T07:18:32;5.10;99.90
67890;DHT22;54685;52.082;5.426;2022-10-19T07:21:02;5.20;99.90
67890;DHT22;54685;52.082;5.426;2022-10-19T07:23:32;5.30;99.90
67890;DHT22;54685;52.082;5.426;2022-10-19T07:26:16;5.30;99.90
67890;DHT22;54685;52.082;5.426;2022-10-19T07:28:45;5.50;99.90
67890;DHT22;54685;52.082;5.426;2022-10-19T07:31:15;5.50;99.90
67890;DHT22;54685;52.082;5.426;2022-10-19T07:33:43;5.70;99.90
67890;DHT22;54685;52.082;5.426;2022-10-19T07:36:11;5.70;99.90
67890;DHT22;54685;52.082;5.426;2022-10-19T07:38:39;5.80;99.90
67890;DHT22;54685;52.082;5.426;2022-10-19T07:41:11;5.90;99.90
67890;DHT22;54685;52.082;5.426;2022-10-19T07:43:38;6.10;99.90
67890;DHT22;54685;52.082;5.426;2022-10-19T07:46:09;6.10;99.90
67890;DHT22;54685;52.082;5.426;2022-10-19T07:48:36;6.20;99.90
67890;DHT22;54685;52.082;5.426;2022-10-19T07:51:04;6.30;99.90
67890;DHT22;54685;52.082;5.426;2022-10-19T07:53:33;6.40;99.90
67890;DHT22;54685;52.082;5.426;2022-10-19T07:56:14;6.50;99.90
67890;DHT22;54685;52.082;5.426;2022-10-19T07:58:41;6.60;99.90
67890;DHT22;54685;52.082;5.426;2022-10-19T08:01:14;6.70;99.90
67890;DHT22;54685;52.082;5.426;2022-10-19T08:03:41;6.80;99.90
67890;DHT22;54685;52.082;5.426;2022-10-19T08:06:28;6.90;99.90
67890;DHT22;54685;52.082;5.426;2022-10-19T08:08:56;7.10;99.90
67890;DHT22;54685;52.082;5.426;2022-10-19T08:11:27;7.20;99.90
67890;DHT22;54685;52.082;5.426;2022-10-19T08:13:54;7.30;99.90
67890;DHT22;54685;52.082;5.426;2022-10-19T08:18:50;7.50;99.90
67890;DHT22;54685;52.082;5.426;2022-10-19T08:21:17;7.60;99.90
67890;DHT22;54685;52.082;5.426;2022-10-19T08:23:44;7.70;99.90
67890;DHT22;54685;52.082;5.426;2022-10-19T08:26:11;7.80;99.90
67890;DHT22;54685;52.082;5.426;2022-10-19T08:28:38;7.90;99.90
67890;DHT22;54685;52.082;5.426;2022-10-19T08:31:16;8.00;99.90
67890;DHT22;54685;52.082;5.426;2022-10-19T08:33:44;8.20;99.90
67890;DHT22;54685;52.082;5.426;2022-10-19T08:36:12;8.30;99.90
67890;DHT22;54685;52.082;5.426;2022-10-19T08:38:39;8.40;99.90
67890;DHT22;54685;52.082;5.426;2022-10-19T08:43:50;8.60;99.90
67890;DHT22;54685;52.082;5.426;2022-10-19T08:49:18;8.90;99.90
67890;DHT22;54685;52.082;5.426;2022-10-19T08:51:50;9.00;99.90
67890;DHT22;54685;52.082;5.426;2022-10-19T08:54:20;9.10;99.90
67890;DHT22;54685;52.082;5.426;2022-10-19T08:57:12;9.20;99.90
67890;DHT22;54685;52.082;5.426;2022-10-19T08:59:54;9.30;99.90
67890;DHT22;54685;52.082;5.426;2022-10-19T09:08:25;9.50;99.90
67890;DHT22;54685;52.082;5.426;2022-10-19T09:10:53;9.70;99.90
67890;DHT22;54685;52.082;5.426;2022-10-19T09:16:23;9.90;99.90
67890;DHT22;54685;52.082;5.426;2022-10-19T09:18:50;10.00;99.90
67890;DHT22;54685;52.082;5.426;2022-10-19T09:21:36;10.10;99.90
67890;DHT22;54685;52.082;5.426;2022-10-19T09:27:00;10.30;99.90
67890;DHT22;54685;52.082;5.426;2022-10-19T09:32:13;10.50;99.90
67890;DHT22;54685;52.082;5.426;2022-10-19T09:35:23;10.70;99.90
67890;DHT22;54685;52.082;5.426;2022-10-19T09:37:48;10.80;99.90
67890;DHT22;54685;52.082;5.426;2022-10-19T09:40:21;10.90;99.90
67890;DHT22;54685;52.082;5.426;2022-10-19T09:42:49;11.00;99.90
67890;DHT22;54685;52.082;5.426;2022-10-19T09:45:42;11.20;99.90
67890;DHT22;54685;52.082;5.426;2022-10-19T09:51:15;11.70;99.90
67890;DHT22;54685;52.082;5.426;2022-10-19T09:53:46;12.00;99.90
67890;DHT22;54685;52.082;5.426;2022-10-19T09:56:19;12.20;99.90
67890;DHT22;54685;52.082;5.426;2022-10-19T09:58:48;12.40;99.90
67890;DHT22;54685;52.082;5.426;2022-10-19T10:01:32;12.90;99.90
67890;DHT22;54685;52.082;5.426;2022-10-19T10:04:16;13.90;99.90
67890;DHT22;54685;52.082;5.426;2022-10-19T10:06:46;14.70;99.90
67890;DHT22;54685;52.082;5.426;2022-10-19T10:09:15;15.20;99.90
67890;DHT22;54685;52.082;5.426;2022-10-19T10:11:45;15.80;99.90
67890;DHT22;54685;52.082;5.426;2022-10-19T10:14:31;16.30;99.90
67890;DHT22;54685;52.082;5.426;2022-10-19T10:17:17;16.50;99.90
67890;DHT22;54685;52.082;5.426;2022-10-19T10:20:02;16.50;99.90
67890;DHT22;54685;52.082;5.426;2022-10-19T10:22:33;16.60;99.90
67890;DHT22;54685;52.082;5.426;2022-10-19T10:25:10;16.60;99.90
67890;DHT22;54685;52.082;5.426;2022-10-19T10:27:38;16.70;99.90
67890;DHT22;54685;52.082;5.426;2022-10-19T10:30:15;16.90;99.90
67890;DHT22;54685;52.082;5.426;2022-10-19T10:32:48;17.20;99.90
67890;DHT22;54685;52.082;5.426;2022-10-19T10:35:35;17.30;99.90
67890;DHT22;54685;52.082;5.426;2022-10-19T10:38:10;17.70;93.50
67890;DHT22;54685;52.082;5.426;2022-10-19T10:40:39;18.10;96.60
67890;DHT22;54685;52.082;5.426;2022-10-19T10:43:12;18.40;87.40
67890;DHT22;54685;52.082;5.426;2022-10-19T10:45:47;18.40;77.90
67890;DHT22;54685;52.082;5.426;2022-10-19T10:50:52;18.60;82.00
67890;DHT22;54685;52.082;5.426;2022-10-19T10:53:38;18.60;84.80
67890;DHT22;54685;52.082;5.426;2022-10-19T10:56:23;18.50;80.10
67890;DHT22;54685;52.082;5.426;2022-10-19T10:59:00;18.00;83.30
67890;DHT22;54685;52.082;5.426;2022-10-19T11:01:32;17.70;82.30
67890;DHT22;54685;52.082;5.426;2022-10-19T11:04:08;17.40;86.50
67890;DHT22;54685;52.082;5.426;2022-10-19T11:06:42;17.30;86.60
67890;DHT22;54685;52.082;5.426;2022-10-19T11:09:30;17.10;91.30
67890;DHT22;54685;52.082;5.426;2022-10-19T11:12:01;17.00;92.20
67890;DHT22;54685;52.082;5.426;2022-10-19T11:14:47;16.70;92.90
67890;DHT22;54685;52.082;5.426;2022-10-19T11:17:22;16.60;92.40
67890;DHT22;54685;52.082;5.426;2022-10-19T11:19:50;16.20;93.80
67890;DHT22;54685;52.082;5.426;2022-10-19T11:30:23;16.50;93.50
67890;DHT22;54685;52.082;5.426;2022-10-19T11:35:54;16.50;91.80
67890;DHT22;54685;52.082;5.426;2022-10-19T11:38:35;16.50;92.10
67890;DHT22;54685;52.082;5.426;2022-10-19T11:41:23;16.50;91.40
67890;DHT22;54685;52.082;5.426;2022-10-19T11:46:44;16.60;89.20
67890;DHT22;54685;52.082;5.426;2022-10-19T11:49:30;16.60;90.30
67890;DHT22;54685;52.082;5.426;2022-10-19T11:52:11;16.50;90.20
67890;DHT22;54685;52.082;5.426;2022-10-19T11:57:24;16.30;90.30
67890;DHT22;54685;52.082;5.426;2022-10-19T11:59:59;16.20;91.80
67890;DHT22;54685;52.082;5.426;2022-10-19T12:08:24;16.30;93.20
67890;DHT22;54685;52.082;5.426;2022-10-19T12:11:14;16.50;92.70
67890;DHT22;54685;52.082;5.426;2022-10-19T12:13:50;16.50;90.60
67890;DHT22;54685;52.082;5.426;2022-10-19T12:16:19;16.40;90.40
67890;DHT22;54685;52.082;5.426;2022-10-19T12:18:49;16.40;91.40
67890;DHT22;54685;52.082;5.426;2022-10-19T12:21:33;16.50;91.20
67890;DHT22;54685;52.082;5.426;2022-10-19T12:24:10;16.50;89.70
67890;DHT22;54685;52.082;5.426;2022-10-19T12:26:39;16.50;89.60
67890;DHT22;54685;52.082;5.426;2022-10-19T12:29:13;16.50;90.30
67890;DHT22;54685;52.082;5.426;2022-10-19T12:31:42;16.50;90.80
67890;DHT22;54685;52.082;5.426;2022-10-19T12:39:44;16.60;89.50
67890;DHT22;54685;52.082;5.426;2022-10-19T12:47:28;16.50;89.60
67890;DHT22;54685;52.082;5.426;2022-10-19T12:49:55;16.40;89.20
67890;DHT22;54685;52.082;5.426;2022-10-19T12:52:41;16.40;87.10
67890;DHT22;54685;52.082;5.426;2022-10-19T12:57:59;16.50;90.00
67890;DHT22;54685;52.082;5.426;2022-10-19T13:00:32;16.50;89.50
67890;DHT22;54685;52.082;5.426;2022-10-19T13:03:14;16.50;90.80
67890;DHT22;54685;52.082;5.426;2022-10-19T13:05:41;16.50;89.30
67890;DHT22;54685;52.082;5.426;2022-10-19T13:08:26;16.50;90.40
67890;DHT22;54685;52.082;5.426;2022-10-19T13:11:14;16.50;90.50
67890;DHT22;54685;52.082;5.426;2022-10-19T13:14:45;16.40;90.70
67890;DHT22;54685;52.082;5.426;2022-10-19T13:16:59;16.40;88.60
67890;DHT22;54685;52.082;5.426;2022-10-19T13:19:27;16.40;91.50
67890;DHT22;54685;52.082;5.426;2022-10-19T13:24:32;16.30;91.60
67890;DHT22;54685;52.082;5.426;2022-10-19T13:43:21;16.20;91.20
67890;DHT22;54685;52.082;5.426;2022-10-19T13:46:14;16.20;90.40
67890;DHT22;54685;52.082;5.426;2022-10-19T13:54:30;16.10;93.20
67890;DHT22;54685;52.082;5.426;2022-10-19T14:00:18;16.00;92.20
67890;DHT22;54685;52.082;5.426;2022-10-19T14:05:53;15.90;90.10
67890;DHT22;54685;52.082;5.426;2022-10-19T14:11:31;15.80;94.30
67890;DHT22;54685;52.082;5.426;2022-10-19T14:14:11;15.90;93.50
67890;DHT22;54685;52.082;5.426;2022-10-19T14:16:46;15.90;92.90
67890;DHT22;54685;52.082;5.426;2022-10-19T14:19:25;15.80;92.90
67890;DHT22;54685;52.082;5.426;2022-10-19T14:21:57;15.80;92.70
67890;DHT22;54685;52.082;5.426;2022-10-19T14:24:32;15.70;93.80
67890;DHT22;54685;52.082;5.426;2022-10-19T14:27:03;15.80;93.50
67890;DHT22;54685;52.082;5.426;2022-10-19T14:29:44;15.80;93.40
67890;DHT22;54685;52.082;5.426;2022-10-19T14:32:12;15.80;93.00
67890;DHT22;54685;52.082;5.426;2022-10-19T14:34:44;15.80;93.00
67890;DHT22;54685;52.082;5.426;2022-10-19T14:37:24;15.70;93.30
67890;DHT22;54685;52.082;5.426;2022-10-19T14:42:44;15.60;92.00
67890;DHT22;54685;52.082;5.426;2022-10-19T14:45:24;15.60;93.60
67890;DHT22;54685;52.082;5.426;2022-10-19T14:48:03;15.50;93.50
67890;DHT22;54685;52.082;5.426;2022-10-19T14:50:44;15.60;93.80
67890;DHT22;54685;52.082;5.426;2022-10-19T14:53:39;15.50;93.60
67890;DHT22;54685;52.082;5.426;2022-10-19T14:56:55;15.50;92.10
67890;DHT22;54685;52.082;5.426;2022-10-19T14:59:03;15.50;93.90
67890;DHT22;54685;52.082;5.426;2022-10-19T15:01:33;15.40;93.30
67890;DHT22;54685;52.082;5.426;2022-10-19T15:04:01;15.40;94.50
67890;DHT22;54685;52.082;5.426;2022-10-19T15:06:31;15.40;95.90
67890;DHT22;54685;52.082;5.426;2022-10-19T15:09:03;15.40;94.90
67890;DHT22;54685;52.082;5.426;2022-10-19T15:11:39;15.40;94.90
67890;DHT22;54685;52.082;5.426;2022-10-19T15:14:15;15.30;95.10
67890;DHT22;54685;52.082;5.426;2022-10-19T15:16:55;15.30;95.40
67890;DHT22;54685;52.082;5.426;2022-10-19T15:24:53;15.10;94.70
67890;DHT22;54685;52.082;5.426;2022-10-19T15:27:34;15.10;93.80
67890;DHT22;54685;52.082;5.426;2022-10-19T15:32:53;14.80;94.90
67890;DHT22;54685;52.082;5.426;2022-10-19T15:35:31;14.70;96.50
67890;DHT22;54685;52.082;5.426;2022-10-19T15:38:05;14.60;96.50
67890;DHT22;54685;52.082;5.426;2022-10-19T15:40:38;14.50;97.10
67890;DHT22;54685;52.082;5.426;2022-10-19T15:48:54;14.30;98.70
67890;DHT22;54685;52.082;5.426;2022-10-19T15:53:56;14.20;99.90
67890;DHT22;54685;52.082;5.426;2022-10-19T15:56:25;14.10;99.90
67890;DHT22;54685;52.082;5.426;2022-10-19T15:58:55;14.10;99.90
67890;DHT22;54685;52.082;5.426;2022-10-19T16:01:25;14.00;99.90
67890;DHT22;54685;52.082;5.426;2022-10-19T16:03:53;13.90;99.90
67890;DHT22;54685;52.082;5.426;2022-10-19T16:06:22;13.90;99.90
67890;DHT22;54685;52.082;5.426;2022-10-19T16:08:50;13.80;99.90
67890;DHT22;54685;52.082;5.426;2022-10-19T16:11:18;13.80;99.90
67890;DHT22;54685;52.082;5.426;2022-10-19T16:13:45;13.80;99.90
67890;DHT22;54685;52.082;5.426;2022-10-19T16:18:46;13.70;99.90
67890;DHT22;54685;52.082;5.426;2022-10-19T16:21:14;13.60;99.90
67890;DHT22;54685;52.082;5.426;2022-10-19T16:23:41;13.50;99.90
67890;DHT22;54685;52.082;5.426;2022-10-19T16:26:08;13.50;99.90
67890;DHT22;54685;52.082;5.426;2022-10-19T16:28:35;13.50;99.90
67890;DHT22;54685;52.082;5.426;2022-10-19T16:31:02;13.40;99.90
67890;DHT22;54685;52.082;5.426;2022-10-19T16:33:29;13.40;99.90
67890;DHT22;54685;52.082;5.426;2022-10-19T16:35:56;13.30;99.90
67890;DHT22;54685;52.082;5.426;2022-10-19T16:38:22;13.30;99.90
67890;DHT22;54685;52.082;5.426;2022-10-19T16:40:49;13.20;99.90
67890;DHT22;54685;52.082;5.426;2022-10-19T16:43:16;13.20;99.90
67890;DHT22;54685;52.082;5.426;2022-10-19T16:45:43;13.20;99.90
67890;DHT22;54685;52.082;5.426;2022-10-19T16:48:11;13.10;99.90
67890;DHT22;54685;52.082;5.426;2022-10-19T16:50:38;13.10;99.90
67890;DHT22;54685;52.082;5.426;2022-10-19T16:53:07;13.00;99.90
67890;DHT22;54685;52.082;5.426;2022-10-19T16:55:38;13.00;99.90
67890;DHT22;54685;52.082;5.426;2022-10-19T16:58:06;13.00;99.90
67890;DHT22;54685;52.082;5.426;2022-10-19T17:00:34;12.90;99.90
67890;DHT22;54685;52.082;5.426;2022-10-19T17:03:01;12.90;99.90
67890;DHT22;54685;52.082;5.426;2022-10-19T17:05:27;12.90;99.90
67890;DHT22;54685;52.082;5.426;2022-10-19T17:07:54;12.90;99.90
67890;DHT22;54685;52.082;5.426;2022-10-19T17:10:21;12.90;99.90
67890;DHT22;54685;52.082;5.426;2022-10-19T17:12:48;12.80;99.90
67890;DHT22;54685;52.082;5.426;2022-10-19T17:15:15;12.70;99.90
67890;DHT22;54685;52.082;5.426;2022-10-19T17:18:02;12.70;99.90
67890;DHT22;54685;52.082;5.426;2022-10-19T17:20:30;12.60;99.90
67890;DHT22;54685;52.082;5.426;2022-10-19T17:22:57;12.60;99.90
67890;DHT22;54685;52.082;5.426;2022-10-19T17:25:24;12.60;99.90
67890;DHT22;54685;52.082;5.426;2022-10-19T17:27:51;12.60;99.90
67890;DHT22;54685;52.082;5.426;2022-10-19T17:30:18;12.50;99.90
67890;DHT22;54685;52.082;5.426;2022-10-19T17:32:44;12.50;99.90
67890;DHT22;54685;52.082;5.426;2022-10-19T17:35:11;12.50;99.90
67890;DHT22;54685;52.082;5.426;2022-10-19T17:37:38;12.40;99.90
67890;DHT22;54685;52.082;5.426;2022-10-19T17:40:05;12.40;99.90
67890;DHT22;54685;52.082;5.426;2022-10-19T17:42:32;12.40;99.90
67890;DHT22;54685;52.082;5.426;2022-10-19T17:45:02;12.30;99.90
67890;DHT22;54685;52.082;5.426;2022-10-19T17:47:29;12.30;99.90
67890;DHT22;54685;52.082;5.426;2022-10-19T17:49:56;12.30;99.90
67890;DHT22;54685;52.082;5.426;2022-10-19T17:52:22;12.30;99.90
67890;DHT22;54685;52.082;5.426;2022-10-19T17:54:49;12.30;99.90
67890;DHT22;54685;52.082;5.426;2022-10-19T17:57:36;12.30;99.90
67890;DHT22;54685;52.082;5.426;2022-10-19T18:00:04;12.20;99.90
67890;DHT22;54685;52.082;5.426;2022-10-19T18:02:37;12.30;99.90
67890;DHT22;54685;52.082;5.426;2022-10-19T18:05:05;12.30;99.90
67890;DHT22;54685;52.082;5.426;2022-10-19T18:07:32;12.20;99.90
67890;DHT22;54685;52.082;5.426;2022-10-19T18:10:00;12.20;99.90
67890;DHT22;54685;52.082;5.426;2022-10-19T18:12:26;12.30;99.90
67890;DHT22;54685;52.082;5.426;2022-10-19T18:14:53;12.20;99.90
67890;DHT22;54685;52.082;5.426;2022-10-19T18:17:20;12.30;99.90
67890;DHT22;54685;52.082;5.426;2022-10-19T18:19:52;12.30;99.90
67890;DHT22;54685;52.082;5.426;2022-10-19T18:22:19;12.30;99.90
67890;DHT22;54685;52.082;5.426;2022-10-19T18:24:47;12.30;99.90